createdAt,value
2022-12-31T00:00:12.504Z,2.37
2022-12-31T00:07:21.581Z,1.50
2022-12-31T00:09:48.095Z,2.33
2022-12-31T00:12:40.304Z,1.63
2022-12-31T00:15:27.537Z,1.50
2022-12-31T00:17:54.065Z,1.60
2022-12-31T00:20:20.597Z,1.57
2022-12-31T00:27:59.516Z,2.53
2022-12-31T00:30:34.884Z,1.30
2022-12-31T00:33:02.879Z,1.23
2022-12-31T00:35:29.954Z,1.70
2022-12-31T02:04:08.413Z,0.80
2022-12-31T02:06:39.665Z,2.27
2022-12-31T02:09:07.280Z,0.77
2022-12-31T02:11:37.040Z,0.63
2022-12-31T02:14:06.364Z,1.23
2022-12-31T02:16:42.848Z,0.70
2022-12-31T02:19:43.090Z,0.70
2022-12-31T02:22:19.286Z,0.60
2022-12-31T02:25:17.568Z,0.83
2022-12-31T02:27:52.608Z,0.67
2022-12-31T02:30:22.248Z,0.73
2022-12-31T02:33:06.557Z,0.80
2022-12-31T02:35:38.840Z,0.60
2022-12-31T02:38:10.546Z,0.80
2022-12-31T02:40:38.623Z,9.77
2022-12-31T02:43:05.359Z,0.70
2022-12-31T02:45:36.489Z,0.43
2022-12-31T02:48:20.464Z,1.30
2022-12-31T02:50:57.444Z,0.40
2022-12-31T02:53:50.452Z,1.33
2022-12-31T02:56:22.086Z,0.77
2022-12-31T02:59:15.977Z,1.47
2022-12-31T03:02:05.026Z,0.30
2022-12-31T03:04:34.972Z,0.40
2022-12-31T03:07:04.479Z,0.50
2022-12-31T03:09:31.022Z,0.77
2022-12-31T03:12:16.864Z,0.40
2022-12-31T03:14:43.744Z,0.50
2022-12-31T03:17:11.438Z,0.50
2022-12-31T03:19:56.010Z,1.03
2022-12-31T03:22:29.088Z,1.23
2022-12-31T03:25:16.354Z,0.60
2022-12-31T03:27:45.352Z,0.50
2022-12-31T03:30:13.776Z,0.87
2022-12-31T03:32:41.977Z,0.53
2022-12-31T03:35:09.516Z,0.50
2022-12-31T03:37:36.046Z,0.50
2022-12-31T03:40:02.711Z,0.40
2022-12-31T03:42:29.248Z,0.57
2022-12-31T03:44:55.806Z,0.43
2022-12-31T03:47:22.343Z,1.03
2022-12-31T03:49:55.550Z,0.70
2022-12-31T03:52:22.441Z,0.60
2022-12-31T03:54:49.091Z,0.43
2022-12-31T03:57:15.663Z,0.40
2022-12-31T03:59:42.491Z,1.40
2022-12-31T04:02:09.186Z,0.50
2022-12-31T04:04:35.816Z,0.70
2022-12-31T04:07:03.022Z,0.77
2022-12-31T04:09:29.543Z,0.77
2022-12-31T04:11:56.126Z,1.70
2022-12-31T04:14:22.631Z,0.60
2022-12-31T04:16:49.474Z,0.90
2022-12-31T04:19:16.133Z,0.67
2022-12-31T04:21:42.663Z,1.00
2022-12-31T04:24:09.877Z,0.70
2022-12-31T04:26:37.213Z,0.70
2022-12-31T04:29:03.914Z,1.77
2022-12-31T04:31:30.707Z,3.90
2022-12-31T04:33:57.271Z,2.67
2022-12-31T04:36:23.817Z,1.70
2022-12-31T04:38:50.370Z,3.57
2022-12-31T04:41:17.654Z,1.73
2022-12-31T04:43:46.204Z,1.33
2022-12-31T04:46:13.671Z,1.17
2022-12-31T04:48:40.433Z,1.70
2022-12-31T04:51:07.979Z,3.28
2022-12-31T04:53:34.492Z,1.75
2022-12-31T04:56:01.146Z,2.07
2022-12-31T04:58:28.309Z,2.43
2022-12-31T05:00:55.603Z,1.90
2022-12-31T05:03:25.205Z,2.28
2022-12-31T05:05:51.990Z,2.25
2022-12-31T05:08:19.046Z,1.80
2022-12-31T05:10:47.597Z,5.87
2022-12-31T05:13:14.602Z,1.23
2022-12-31T05:15:42.458Z,1.70
2022-12-31T05:18:08.992Z,1.77
2022-12-31T05:20:38.483Z,1.33
2022-12-31T05:23:05.276Z,2.65
2022-12-31T05:25:32.969Z,2.38
2022-12-31T05:27:59.481Z,3.15
2022-12-31T05:30:26.156Z,1.75
2022-12-31T05:32:55.058Z,1.00
2022-12-31T05:35:21.697Z,2.67
2022-12-31T05:37:48.286Z,1.90
2022-12-31T05:40:14.871Z,2.63
2022-12-31T05:42:41.375Z,0.57
2022-12-31T05:45:08.684Z,1.02
2022-12-31T05:47:35.198Z,2.22
2022-12-31T05:50:02.447Z,1.17
2022-12-31T05:52:28.951Z,1.17
2022-12-31T05:54:55.467Z,0.88
2022-12-31T05:57:22.603Z,4.10
2022-12-31T05:59:49.149Z,1.55
2022-12-31T06:02:15.701Z,1.80
2022-12-31T06:04:42.291Z,1.65
2022-12-31T06:07:09.452Z,1.95
2022-12-31T06:09:36.027Z,2.40
2022-12-31T06:12:05.580Z,2.13
2022-12-31T06:14:33.311Z,0.80
2022-12-31T06:16:59.918Z,1.58
2022-12-31T06:19:26.504Z,2.00
2022-12-31T06:21:53.027Z,2.53
2022-12-31T06:24:20.208Z,0.82
2022-12-31T06:26:46.707Z,1.23
2022-12-31T06:29:13.282Z,3.25
2022-12-31T06:31:41.207Z,2.72
2022-12-31T06:34:07.907Z,1.48
2022-12-31T06:36:34.434Z,1.63
2022-12-31T06:39:01.518Z,1.65
2022-12-31T06:41:28.669Z,3.87
2022-12-31T06:43:55.192Z,1.55
2022-12-31T06:46:21.769Z,1.73
2022-12-31T06:48:48.315Z,2.72
2022-12-31T06:51:17.719Z,2.47
2022-12-31T06:53:45.317Z,1.20
2022-12-31T06:56:15.273Z,1.38
2022-12-31T06:58:43.404Z,1.75
2022-12-31T07:01:28.152Z,2.03
2022-12-31T07:04:00.822Z,2.90
2022-12-31T07:06:33.374Z,2.03
2022-12-31T07:09:09.008Z,1.15
2022-12-31T07:11:41.665Z,1.42
2022-12-31T07:14:23.205Z,1.33
2022-12-31T07:17:01.741Z,2.65
2022-12-31T07:19:37.942Z,3.17
2022-12-31T07:22:11.572Z,4.07
2022-12-31T07:24:38.747Z,1.48
2022-12-31T07:27:25.477Z,3.42
2022-12-31T07:30:06.120Z,2.30
2022-12-31T07:32:57.726Z,1.90
2022-12-31T07:35:35.057Z,2.47
2022-12-31T07:38:07.478Z,1.95
2022-12-31T07:40:46.761Z,3.20
2022-12-31T07:43:23.539Z,3.15
2022-12-31T07:45:58.607Z,1.38
2022-12-31T07:48:27.279Z,1.35
2022-12-31T07:50:56.958Z,2.15
2022-12-31T07:53:24.821Z,2.47
2022-12-31T07:55:54.636Z,2.78
2022-12-31T07:58:28.130Z,1.63
2022-12-31T08:00:56.681Z,2.80
2022-12-31T08:03:45.582Z,2.15
2022-12-31T08:06:18.721Z,1.90
2022-12-31T08:08:53.093Z,2.42
2022-12-31T08:11:29.321Z,1.73
2022-12-31T08:14:00.007Z,1.73
2022-12-31T08:16:27.976Z,1.88
2022-12-31T08:18:54.961Z,2.67
2022-12-31T08:21:36.276Z,1.73
2022-12-31T08:24:13.337Z,1.48
2022-12-31T08:26:53.352Z,3.13
2022-12-31T08:29:35.181Z,1.30
2022-12-31T08:32:11.560Z,1.80
2022-12-31T08:34:47.166Z,1.52
2022-12-31T08:37:23.095Z,2.15
2022-12-31T08:40:03.078Z,3.10
2022-12-31T08:42:36.439Z,1.42
2022-12-31T08:45:09.387Z,3.72
2022-12-31T08:47:45.143Z,1.85
2022-12-31T08:50:14.736Z,1.58
2022-12-31T08:52:41.796Z,2.60
2022-12-31T08:55:13.527Z,1.92
2022-12-31T08:57:45.569Z,1.10
2022-12-31T09:00:15.450Z,3.47
2022-12-31T09:02:54.827Z,3.33
2022-12-31T09:05:25.109Z,2.95
2022-12-31T09:08:03.770Z,2.10
2022-12-31T09:10:34.400Z,1.42
2022-12-31T09:13:09.411Z,2.85
2022-12-31T09:15:41.355Z,3.00
2022-12-31T09:18:11.109Z,2.65
2022-12-31T09:20:43.292Z,2.17
2022-12-31T09:23:11.855Z,1.98
2022-12-31T09:25:43.714Z,1.13
2022-12-31T09:28:15.992Z,3.08
2022-12-31T09:30:52.551Z,1.95
2022-12-31T09:33:32.903Z,2.88
2022-12-31T09:36:03.074Z,0.85
2022-12-31T09:38:34.392Z,2.08
2022-12-31T09:41:12.861Z,4.43
2022-12-31T09:44:19.421Z,1.83
2022-12-31T09:47:30.859Z,4.00
2022-12-31T09:50:20.410Z,3.10
2022-12-31T09:53:11.634Z,2.00
2022-12-31T09:55:47.948Z,2.53
2022-12-31T09:58:29.237Z,2.55
2022-12-31T10:01:03.257Z,1.85
2022-12-31T10:03:42.108Z,2.00
2022-12-31T10:06:21.033Z,0.82
2022-12-31T10:09:10.403Z,1.58
2022-12-31T10:11:54.039Z,4.20
2022-12-31T10:14:41.066Z,2.72
2022-12-31T10:17:24.734Z,3.17
2022-12-31T10:20:10.227Z,2.35
2022-12-31T10:22:52.902Z,3.35
2022-12-31T10:25:38.598Z,4.57
2022-12-31T10:28:14.650Z,2.83
2022-12-31T10:30:56.050Z,3.47
2022-12-31T10:33:40.094Z,1.58
2022-12-31T10:36:09.092Z,3.53
2022-12-31T10:38:54.977Z,3.58
2022-12-31T10:41:59.421Z,2.30
2022-12-31T10:44:39.029Z,1.45
2022-12-31T10:47:33.738Z,5.18
2022-12-31T10:50:19.143Z,2.13
2022-12-31T10:53:03.883Z,2.72
2022-12-31T10:55:54.620Z,2.38
2022-12-31T10:58:54.272Z,3.20
2022-12-31T11:01:32.120Z,3.72
2022-12-31T11:04:38.795Z,2.97
2022-12-31T11:07:37.685Z,2.20
2022-12-31T11:10:31.134Z,4.63
2022-12-31T11:13:34.427Z,3.17
2022-12-31T11:16:36.741Z,2.88
2022-12-31T11:19:14.173Z,5.03
2022-12-31T11:22:03.472Z,3.70
2022-12-31T11:24:41.021Z,3.42
2022-12-31T11:27:21.080Z,3.15
2022-12-31T11:30:03.215Z,4.00
2022-12-31T11:32:45.935Z,3.33
2022-12-31T11:35:21.641Z,3.08
2022-12-31T11:37:50.247Z,4.13
2022-12-31T11:40:31.557Z,3.45
2022-12-31T11:43:00.144Z,7.50
2022-12-31T11:45:50.849Z,3.70
2022-12-31T11:48:31.280Z,1.63
2022-12-31T11:51:12.111Z,2.85
2022-12-31T11:54:07.998Z,1.92
2022-12-31T11:56:38.063Z,4.20
2022-12-31T11:59:12.093Z,4.25
2022-12-31T12:01:51.704Z,3.88
2022-12-31T12:04:18.624Z,1.90
2022-12-31T12:06:46.197Z,3.03
2022-12-31T12:09:15.814Z,3.35
2022-12-31T12:11:42.901Z,3.17
2022-12-31T12:14:19.555Z,3.30
2022-12-31T12:16:46.234Z,5.53
2022-12-31T12:19:17.633Z,2.15
2022-12-31T12:21:47.138Z,4.55
2022-12-31T12:24:20.075Z,4.05
2022-12-31T12:26:46.803Z,2.55
2022-12-31T12:29:18.895Z,1.63
2022-12-31T12:31:54.915Z,2.88
2022-12-31T12:34:24.824Z,6.57
2022-12-31T12:36:52.032Z,2.53
2022-12-31T12:39:21.455Z,2.65
2022-12-31T12:41:58.371Z,2.47
2022-12-31T12:44:24.902Z,3.00
2022-12-31T12:46:53.120Z,3.40
2022-12-31T12:49:23.753Z,3.97
2022-12-31T12:52:20.072Z,2.58
2022-12-31T12:55:03.719Z,3.63
2022-12-31T12:57:39.679Z,4.57
2022-12-31T13:00:16.947Z,4.57
2022-12-31T13:03:15.817Z,4.50
2022-12-31T13:05:52.360Z,3.53
2022-12-31T13:08:32.411Z,4.20
2022-12-31T13:11:15.039Z,2.38
2022-12-31T13:13:49.533Z,2.35
2022-12-31T13:16:21.534Z,2.30
2022-12-31T13:18:58.235Z,2.47
2022-12-31T13:21:43.821Z,2.55
2022-12-31T13:24:21.482Z,3.05
2022-12-31T13:26:56.871Z,2.45
2022-12-31T13:29:32.635Z,4.15
2022-12-31T13:32:02.210Z,3.95
2022-12-31T13:34:31.311Z,4.70
2022-12-31T13:37:02.747Z,5.15
2022-12-31T13:39:31.656Z,5.30
2022-12-31T13:42:04.574Z,1.67
2022-12-31T13:44:37.374Z,4.40
2022-12-31T13:47:10.028Z,3.25
2022-12-31T13:49:41.855Z,3.88
2022-12-31T13:52:21.202Z,3.72
2022-12-31T13:54:55.580Z,2.88
2022-12-31T13:57:34.865Z,3.90
2022-12-31T14:00:04.982Z,2.75
2022-12-31T14:02:43.557Z,3.75
2022-12-31T14:05:18.328Z,4.03
2022-12-31T14:07:50.065Z,3.40
2022-12-31T14:10:22.527Z,4.63
2022-12-31T14:12:55.654Z,6.93
2022-12-31T14:15:28.132Z,4.72
2022-12-31T14:18:02.893Z,4.55
2022-12-31T14:20:40.827Z,5.93
2022-12-31T14:23:17.712Z,4.45
2022-12-31T14:25:49.732Z,6.38
2022-12-31T14:28:23.679Z,5.07
2022-12-31T14:30:55.457Z,5.43
2022-12-31T14:33:45.975Z,4.13
2022-12-31T14:36:24.190Z,6.45
2022-12-31T14:39:03.310Z,6.22
2022-12-31T14:41:42.828Z,3.90
2022-12-31T14:44:25.054Z,8.77
2022-12-31T14:47:04.891Z,2.92
2022-12-31T14:49:41.356Z,6.00
2022-12-31T14:52:18.832Z,9.10
2022-12-31T14:54:45.396Z,4.45
2022-12-31T14:57:23.057Z,3.15
2022-12-31T14:59:53.666Z,3.97
2022-12-31T15:02:26.583Z,6.90
2022-12-31T15:05:05.136Z,4.20
2022-12-31T15:07:39.345Z,6.53
2022-12-31T15:10:15.160Z,5.22
2022-12-31T15:12:56.073Z,7.32
2022-12-31T15:15:43.397Z,4.85
2022-12-31T15:18:31.553Z,6.35
2022-12-31T15:21:23.751Z,4.40
2022-12-31T15:23:50.585Z,7.35
2022-12-31T15:26:23.525Z,3.78
2022-12-31T15:28:58.978Z,4.93
2022-12-31T15:31:27.704Z,4.03
2022-12-31T15:33:57.771Z,5.82
2022-12-31T15:36:26.101Z,4.93
2022-12-31T15:39:06.729Z,4.78
2022-12-31T15:41:38.185Z,4.00
2022-12-31T15:44:13.006Z,4.70
2022-12-31T15:46:42.161Z,3.42
2022-12-31T15:49:15.830Z,4.10
2022-12-31T15:51:46.409Z,5.78
2022-12-31T15:54:23.406Z,4.18
2022-12-31T15:56:51.166Z,3.80
2022-12-31T15:59:20.059Z,2.95
2022-12-31T16:01:48.009Z,3.38
2022-12-31T16:04:17.722Z,5.85
2022-12-31T16:06:50.488Z,3.42
2022-12-31T16:09:22.362Z,3.95
2022-12-31T16:11:49.261Z,5.47
2022-12-31T16:14:21.777Z,3.97
2022-12-31T16:16:54.693Z,3.60
2022-12-31T16:19:30.716Z,4.97
2022-12-31T16:22:00.587Z,3.15
2022-12-31T16:24:29.980Z,2.92
2022-12-31T16:27:00.540Z,5.72
2022-12-31T16:29:27.332Z,6.32
2022-12-31T16:31:54.611Z,4.60
2022-12-31T16:34:22.837Z,3.80
2022-12-31T16:36:57.910Z,4.53
2022-12-31T16:39:30.388Z,3.72
2022-12-31T16:42:16.292Z,4.18
2022-12-31T16:44:42.845Z,3.00
2022-12-31T16:47:17.624Z,3.47
2022-12-31T16:49:47.852Z,4.05
2022-12-31T16:52:25.084Z,3.70
2022-12-31T16:54:53.708Z,2.83
2022-12-31T16:57:23.368Z,3.58
2022-12-31T16:59:55.313Z,3.47
2022-12-31T17:02:26.753Z,3.00
2022-12-31T17:04:56.350Z,5.13
2022-12-31T17:07:38.700Z,4.38
2022-12-31T17:10:17.869Z,4.20
2022-12-31T17:13:25.575Z,3.17
2022-12-31T17:15:39.673Z,3.65
2022-12-31T17:18:07.528Z,5.78
2022-12-31T17:20:34.447Z,3.47
2022-12-31T17:23:05.840Z,2.13
2022-12-31T17:25:35.477Z,3.28
2022-12-31T17:28:04.453Z,2.85
2022-12-31T17:30:39.677Z,3.88
2022-12-31T17:33:29.243Z,3.60
2022-12-31T17:35:57.764Z,4.80
2022-12-31T17:38:30.549Z,4.15
2022-12-31T17:41:08.531Z,3.85
2022-12-31T17:43:37.284Z,3.72
2022-12-31T17:46:09.858Z,5.80
2022-12-31T17:48:37.112Z,6.57
2022-12-31T17:51:04.178Z,2.33
2022-12-31T17:53:30.702Z,2.97
2022-12-31T17:56:01.933Z,3.67
2022-12-31T17:58:31.243Z,3.63
2022-12-31T18:00:58.767Z,6.05
2022-12-31T18:03:25.579Z,2.85
2022-12-31T18:05:53.138Z,3.42
2022-12-31T18:08:19.689Z,4.35
2022-12-31T18:11:07.466Z,3.25
2022-12-31T18:13:34.477Z,4.78
2022-12-31T18:16:01.000Z,4.78
2022-12-31T18:18:29.542Z,5.85
2022-12-31T18:20:58.541Z,4.20
2022-12-31T18:23:28.621Z,4.95
2022-12-31T18:25:55.242Z,8.05
2022-12-31T18:28:21.881Z,4.10
2022-12-31T18:30:49.365Z,5.25
2022-12-31T18:33:21.332Z,6.45
2022-12-31T18:36:08.156Z,4.30
2022-12-31T18:38:35.798Z,2.50
2022-12-31T18:41:02.307Z,3.38
2022-12-31T18:43:28.832Z,6.03
2022-12-31T18:45:55.418Z,6.93
2022-12-31T18:48:22.008Z,3.35
2022-12-31T18:50:48.795Z,4.50
2022-12-31T18:53:17.429Z,7.03
2022-12-31T18:55:47.901Z,4.28
2022-12-31T18:58:14.427Z,4.18
2022-12-31T19:00:41.089Z,6.10
2022-12-31T19:03:13.415Z,5.85
2022-12-31T19:05:40.201Z,3.80
2022-12-31T19:08:06.744Z,5.07
2022-12-31T19:10:33.875Z,5.35
2022-12-31T19:13:01.012Z,2.67
2022-12-31T19:15:32.051Z,3.25
2022-12-31T19:17:59.098Z,5.95
2022-12-31T19:20:26.038Z,5.60
2022-12-31T19:22:52.588Z,7.20
2022-12-31T19:25:20.802Z,7.20
2022-12-31T19:27:47.487Z,4.05
2022-12-31T19:30:21.927Z,3.30
2022-12-31T19:32:53.633Z,5.18
2022-12-31T19:35:21.455Z,4.47
2022-12-31T19:37:49.886Z,6.57
2022-12-31T19:40:18.206Z,3.53
2022-12-31T19:42:45.339Z,6.05
2022-12-31T19:45:16.657Z,5.63
2022-12-31T19:47:45.114Z,4.63
2022-12-31T19:50:13.922Z,6.70
2022-12-31T19:52:41.012Z,6.05
2022-12-31T19:55:08.958Z,4.68
2022-12-31T19:57:35.459Z,3.80
2022-12-31T20:00:01.960Z,4.88
2022-12-31T20:02:38.523Z,3.90
2022-12-31T20:05:06.793Z,6.30
2022-12-31T20:07:33.564Z,3.88
2022-12-31T20:10:00.350Z,4.38
2022-12-31T20:12:27.434Z,6.22
2022-12-31T20:14:53.964Z,6.20
2022-12-31T20:17:20.842Z,7.00
2022-12-31T20:19:47.411Z,5.65
2022-12-31T20:22:14.583Z,5.57
2022-12-31T20:24:41.157Z,6.82
2022-12-31T20:27:11.004Z,7.53
2022-12-31T20:29:41.537Z,6.15
2022-12-31T20:32:09.153Z,3.72
2022-12-31T20:34:35.669Z,8.77
2022-12-31T20:37:02.207Z,9.63
2022-12-31T20:39:29.313Z,3.83
2022-12-31T20:41:55.855Z,4.35
2022-12-31T20:44:22.429Z,6.43
2022-12-31T20:46:48.957Z,5.28
2022-12-31T20:49:15.842Z,5.43
2022-12-31T20:51:46.141Z,7.15
2022-12-31T20:54:15.400Z,6.38
2022-12-31T20:56:42.540Z,5.90
2022-12-31T20:59:09.427Z,5.53
2022-12-31T21:02:11.164Z,6.25
2022-12-31T21:04:22.872Z,4.30
2022-12-31T21:06:51.367Z,5.55
2022-12-31T21:09:18.029Z,9.85
2022-12-31T21:12:03.557Z,6.18
2022-12-31T21:14:30.317Z,7.28
2022-12-31T21:16:56.835Z,4.57
2022-12-31T21:19:23.369Z,11.02
2022-12-31T21:21:49.895Z,7.85
2022-12-31T21:24:21.803Z,7.82
2022-12-31T21:26:51.118Z,5.50
2022-12-31T21:29:17.680Z,9.30
2022-12-31T21:31:44.193Z,4.18
2022-12-31T21:34:10.910Z,6.25
2022-12-31T21:36:37.765Z,5.10
2022-12-31T21:39:07.149Z,7.13
2022-12-31T21:41:51.647Z,4.80
2022-12-31T21:44:20.210Z,6.57
2022-12-31T21:47:16.023Z,11.13
2022-12-31T21:49:33.494Z,6.15
2022-12-31T21:52:18.389Z,7.35
2022-12-31T21:55:12.055Z,3.75
2022-12-31T21:58:07.222Z,9.48
2022-12-31T22:00:44.657Z,8.65
2022-12-31T22:03:24.213Z,6.32
2022-12-31T22:05:52.974Z,7.25
2022-12-31T22:08:20.545Z,7.30
2022-12-31T22:10:52.531Z,6.15
2022-12-31T22:13:20.026Z,5.88
2022-12-31T22:15:51.749Z,6.70
2022-12-31T22:18:18.358Z,3.92
2022-12-31T22:20:44.952Z,6.78
2022-12-31T22:23:11.457Z,8.32
2022-12-31T22:25:38.357Z,5.20
2022-12-31T22:28:40.587Z,6.43
2022-12-31T22:30:53.787Z,8.10
2022-12-31T22:33:20.314Z,7.75
2022-12-31T22:35:57.035Z,8.93
2022-12-31T22:38:23.872Z,5.10
2022-12-31T22:40:51.007Z,5.88
2022-12-31T22:43:17.611Z,4.93
2022-12-31T22:45:44.091Z,8.80
2022-12-31T22:48:11.244Z,6.22
2022-12-31T22:50:37.748Z,7.85
2022-12-31T22:53:04.246Z,6.20
2022-12-31T22:55:30.771Z,7.68
2022-12-31T22:57:57.258Z,8.15
2022-12-31T23:00:37.774Z,8.98
2022-12-31T23:03:04.412Z,7.00
2022-12-31T23:05:33.242Z,7.68
2022-12-31T23:08:00.606Z,5.93
2022-12-31T23:10:45.463Z,7.60
2022-12-31T23:13:30.696Z,8.50
2022-12-31T23:16:15.685Z,12.48
2022-12-31T23:19:05.352Z,17.13
2022-12-31T23:21:51.044Z,14.77
2022-12-31T23:24:22.797Z,14.05
2022-12-31T23:26:52.752Z,12.48
2022-12-31T23:29:19.268Z,12.15
2022-12-31T23:31:45.826Z,13.02
2022-12-31T23:34:12.399Z,8.40
2022-12-31T23:36:39.883Z,8.95
2022-12-31T23:39:06.440Z,9.55
2022-12-31T23:41:33.288Z,10.25
2022-12-31T23:43:59.761Z,9.07
2022-12-31T23:46:26.640Z,14.13
2022-12-31T23:48:53.617Z,13.13
2022-12-31T23:51:20.496Z,14.50
2022-12-31T23:53:47.994Z,15.75
2022-12-31T23:56:21.105Z,14.50
2022-12-31T23:58:53.611Z,14.40
